Time;durP1;ratioP1;P1;durP2;ratioP2;P2;SDS_P1;SDS_P2;PMS_P1;PMS_P2;Temp;Humidity;BMP_temperature;BMP_pressure;BME280_temperature;BME280_humidity;BME280_pressure;Samples;Min_cycle;Max_cycle;Signal;HPM_P1;HPM_P2
2024/01/11 00:59:17;;;;;;;8.97;6.97;;;17.90;39.60;;;;;;4911014;29;20237;-93
2024/01/11 01:02:11;;;;;;;8.53;6.70;;;17.90;39.60;;;;;;4912141;29;20213;-93
2024/01/11 01:04:56;;;;;;;8.33;6.63;;;17.90;39.60;;;;;;4919013;29;20196;-94
2024/01/11 01:07:22;;;;;;;8.27;6.77;;;17.80;39.60;;;;;;4911457;29;20189;-93
2024/01/11 01:09:52;;;;;;;7.43;6.63;;;17.80;39.60;;;;;;4912467;29;20182;-94
2024/01/11 01:12:20;;;;;;;8.60;6.93;;;17.80;39.70;;;;;;4910767;29;20186;-93
2024/01/11 01:15:04;;;;;;;8.07;6.93;;;17.80;39.70;;;;;;4910013;29;20215;-93
2024/01/11 01:17:48;;;;;;;8.07;6.73;;;17.80;39.60;;;;;;4908693;29;20184;-93
2024/01/11 01:20:17;;;;;;;8.47;7.03;;;17.80;39.70;;;;;;4909789;29;20183;-94
2024/01/11 01:22:48;;;;;;;8.47;6.70;;;17.70;39.70;;;;;;4909399;29;20198;-93
2024/01/11 01:25:17;;;;;;;8.03;7.03;;;17.70;39.70;;;;;;4910169;29;20211;-93
2024/01/11 01:27:48;;;;;;;9.10;6.90;;;17.70;39.70;;;;;;4910388;29;20180;-93
2024/01/11 01:30:20;;;;;;;7.60;6.33;;;17.70;39.70;;;;;;4908917;29;20181;-94
2024/01/11 01:32:57;;;;;;;7.50;6.53;;;17.80;39.70;;;;;;4910027;29;20196;-93
2024/01/11 01:35:24;;;;;;;8.97;6.37;;;17.90;39.60;;;;;;4923716;29;20217;-93
2024/01/11 01:38:08;;;;;;;8.53;6.67;;;18.00;39.50;;;;;;4912089;29;20174;-94
2024/01/11 01:40:39;;;;;;;7.40;6.47;;;18.10;39.30;;;;;;4902673;29;20185;-93
2024/01/11 01:43:19;;;;;;;7.87;6.70;;;18.40;39.20;;;;;;4911570;29;20225;-93
2024/01/11 01:45:52;;;;;;;8.27;6.60;;;18.40;39.00;;;;;;4896044;29;20189;-94
2024/01/11 01:48:26;;;;;;;8.93;6.70;;;18.40;39.00;;;;;;4912581;29;20189;-93
2024/01/11 01:51:04;;;;;;;7.47;6.53;;;18.40;38.90;;;;;;4894643;29;20187;-94
2024/01/11 01:53:40;;;;;;;7.27;6.27;;;18.50;38.90;;;;;;4899674;29;20289;-93
2024/01/11 01:56:21;;;;;;;8.27;6.67;;;18.60;39.00;;;;;;4912984;29;20203;-93
2024/01/11 01:58:53;;;;;;;8.17;6.30;;;18.50;38.90;;;;;;4904751;29;20648;-93
2024/01/11 02:01:37;;;;;;;8.50;6.60;;;18.50;39.00;;;;;;4918488;29;20190;-94
2024/01/11 02:04:29;;;;;;;8.70;6.90;;;18.30;39.10;;;;;;4913598;29;20199;-94
2024/01/11 02:07:00;;;;;;;7.97;6.63;;;18.30;39.20;;;;;;4911783;29;20296;-94
2024/01/11 02:09:35;;;;;;;8.97;6.53;;;18.20;39.30;;;;;;4912893;29;20194;-94
2024/01/11 02:12:06;;;;;;;9.90;6.93;;;18.00;39.40;;;;;;4929232;29;20218;-94
2024/01/11 02:14:49;;;;;;;7.63;6.30;;;17.80;40.00;;;;;;4913143;29;20212;-94
2024/01/11 02:17:22;;;;;;;8.70;6.57;;;17.60;39.70;;;;;;4914784;29;20216;-93
2024/01/11 02:19:53;;;;;;;8.87;6.70;;;17.40;39.90;;;;;;4905381;29;20192;-94
2024/01/11 02:22:42;;;;;;;8.70;7.23;;;17.30;40.10;;;;;;4913648;29;20250;-94
2024/01/11 02:25:12;;;;;;;8.10;6.57;;;17.10;40.30;;;;;;4911275;29;20245;-93
2024/01/11 02:27:50;;;;;;;9.97;7.00;;;16.90;40.40;;;;;;4914351;29;20234;-94
2024/01/11 02:30:24;;;;;;;8.30;6.80;;;16.80;40.60;;;;;;4911503;29;20190;-93
2024/01/11 02:32:50;;;;;;;7.57;6.57;;;16.80;40.60;;;;;;4922230;29;20216;-93
2024/01/11 02:35:18;;;;;;;7.40;6.40;;;16.80;40.70;;;;;;4917456;29;20215;-94
2024/01/11 02:37:56;;;;;;;8.23;6.80;;;16.80;40.70;;;;;;4915980;29;20195;-94
2024/01/11 02:40:26;;;;;;;8.77;7.10;;;16.80;40.70;;;;;;4915072;29;20181;-94
2024/01/11 02:43:09;;;;;;;8.17;6.60;;;16.80;40.60;;;;;;4915498;29;20185;-93
2024/01/11 02:45:38;;;;;;;8.20;6.57;;;16.90;40.50;;;;;;4916565;29;20184;-94
2024/01/11 02:48:15;;;;;;;7.63;6.20;;;17.00;40.40;;;;;;4916750;29;20209;-94
2024/01/11 02:50:45;;;;;;;8.83;6.83;;;17.10;40.40;;;;;;4917421;29;20189;-94
2024/01/11 02:53:25;;;;;;;8.80;7.17;;;17.20;40.30;;;;;;4915920;29;20197;-93
2024/01/11 02:55:59;;;;;;;7.77;6.00;;;17.20;40.10;;;;;;4915922;29;20280;-94
2024/01/11 02:58:25;;;;;;;7.37;6.30;;;17.30;40.10;;;;;;4917047;29;20220;-93
2024/01/11 03:00:57;;;;;;;7.63;6.10;;;17.40;40.00;;;;;;4932497;29;20194;-93
2024/01/11 03:03:31;;;;;;;7.90;6.30;;;17.40;40.00;;;;;;4914029;29;20214;-94
2024/01/11 03:06:08;;;;;;;8.63;6.77;;;17.50;40.00;;;;;;4931903;29;20175;-94
2024/01/11 03:08:37;;;;;;;7.90;6.33;;;17.50;39.90;;;;;;4899714;29;20202;-94
2024/01/11 03:11:07;;;;;;;7.37;6.27;;;17.50;39.80;;;;;;4904026;29;20243;-94
2024/01/11 03:16:49;;;;;;;8.80;6.27;;;17.50;39.90;;;;;;4903587;29;20204;-94
2024/01/11 03:19:45;;;;;;;8.50;6.53;;;17.50;39.90;;;;;;4917999;29;20201;-94
2024/01/11 03:22:14;;;;;;;8.53;6.63;;;17.50;39.80;;;;;;4917772;29;20251;-94
2024/01/11 03:24:48;;;;;;;7.73;6.70;;;17.60;39.80;;;;;;4918545;29;20182;-94
2024/01/11 03:27:22;;;;;;;7.87;6.40;;;17.50;39.90;;;;;;4917791;29;20173;-94
2024/01/11 03:29:54;;;;;;;8.20;6.40;;;17.50;39.90;;;;;;4917689;29;20170;-94
2024/01/11 03:32:21;;;;;;;8.50;6.60;;;17.40;39.90;;;;;;4918063;29;20182;-94
2024/01/11 03:35:24;;;;;;;7.97;5.90;;;17.60;39.80;;;;;;4918568;29;20234;-94
2024/01/11 03:42:19;;;;;;;6.97;6.03;;;17.50;39.80;;;;;;4843345;29;20203;-94
2024/01/11 04:06:21;;;;;;;8.53;6.73;;;18.00;39.10;;;;;;4718301;30;20236;-94
2024/01/11 04:10:00;;;;;;;7.80;6.47;;;18.00;39.10;;;;;;4722513;30;20203;-94
2024/01/11 04:27:20;;;;;;;10.13;6.97;;;16.00;41.00;;;;;;4769073;30;20199;-95
2024/01/11 04:37:35;;;;;;;8.47;6.30;;;15.10;42.00;;;;;;4700073;30;20275;-94
2024/01/11 04:40:49;;;;;;;7.73;6.43;;;15.00;42.30;;;;;;4666435;30;20280;-95
2024/01/11 04:47:55;;;;;;;8.30;6.20;;;17.90;39.20;;;;;;4649448;31;20198;-94
2024/01/11 04:54:46;;;;;;;8.77;6.40;;;18.30;38.60;;;;;;4600077;31;20225;-95
2024/01/11 04:58:23;;;;;;;8.90;6.77;;;18.10;38.80;;;;;;4601862;31;20212;-94
2024/01/11 05:12:46;;;;;;;8.23;6.47;;;18.40;38.60;;;;;;4610910;31;20231;-95
2024/01/11 05:19:49;;;;;;;7.70;6.60;;;18.30;38.70;;;;;;4663626;30;20229;-95
2024/01/11 05:33:07;;;;;;;8.23;6.80;;;18.10;38.70;;;;;;4680761;30;20233;-95
2024/01/11 05:36:38;;;;;;;8.40;6.90;;;17.80;38.90;;;;;;4684088;30;20227;-94
2024/01/11 05:40:10;;;;;;;8.87;6.70;;;17.40;39.30;;;;;;4655680;30;20216;-94
2024/01/11 05:43:11;;;;;;;9.47;6.93;;;17.00;39.70;;;;;;4735553;30;20198;-95
2024/01/11 05:46:47;;;;;;;8.73;6.97;;;16.60;40.00;;;;;;4734693;30;20277;-94
2024/01/11 06:03:21;;;;;;;9.17;6.83;;;18.60;38.30;;;;;;4752474;30;20241;-95
2024/01/11 06:08:49;;;;;;;9.20;6.20;;;18.70;38.10;;;;;;4913197;29;20625;0
2024/01/11 06:11:18;;;;;;;9.50;6.83;;;18.60;38.20;;;;;;4913119;29;20257;0
2024/01/11 06:13:43;;;;;;;8.07;6.53;;;18.60;38.10;;;;;;4928498;29;20199;0
2024/01/11 06:16:09;;;;;;;8.20;6.73;;;18.40;38.30;;;;;;4914451;29;20231;0
2024/01/11 06:18:35;;;;;;;8.97;6.47;;;18.20;38.40;;;;;;4915078;29;20216;-1
2024/01/11 06:21:01;;;;;;;10.53;6.30;;;18.10;38.60;;;;;;4915685;29;20199;-1
2024/01/11 06:23:26;;;;;;;8.27;6.60;;;18.00;38.80;;;;;;4915336;29;20244;-1
2024/01/11 06:25:52;;;;;;;8.17;6.53;;;17.90;39.00;;;;;;4913470;29;20395;0
2024/01/11 06:28:18;;;;;;;9.37;6.60;;;17.90;39.30;;;;;;4898217;29;20188;0
2024/01/11 06:30:44;;;;;;;8.70;6.47;;;17.80;39.50;;;;;;4894596;29;20272;-1
2024/01/11 06:33:09;;;;;;;9.40;6.70;;;17.70;39.70;;;;;;4895081;29;20572;0
2024/01/11 06:35:35;;;;;;;8.57;6.63;;;17.70;39.70;;;;;;4894069;29;20380;0
2024/01/11 06:38:01;;;;;;;9.17;6.60;;;17.70;39.70;;;;;;4896135;29;20173;0
2024/01/11 06:40:27;;;;;;;10.87;7.67;;;17.70;39.80;;;;;;4895153;29;20212;-1
2024/01/11 06:42:53;;;;;;;10.67;7.57;;;17.60;39.90;;;;;;4893345;29;20349;0
2024/01/11 06:45:19;;;;;;;10.03;7.53;;;17.50;40.00;;;;;;4892264;29;20457;0
2024/01/11 06:47:46;;;;;;;10.77;7.57;;;17.40;40.10;;;;;;4892345;29;20260;0
2024/01/11 06:50:14;;;;;;;11.37;7.90;;;17.30;40.20;;;;;;4892557;29;20511;-1
2024/01/11 06:52:40;;;;;;;10.37;7.33;;;17.10;40.30;;;;;;4894375;29;20210;-2
2024/01/11 06:55:07;;;;;;;18.80;8.57;;;17.00;40.40;;;;;;4892671;29;20383;0
2024/01/11 06:57:32;;;;;;;12.73;8.20;;;17.00;40.40;;;;;;4892595;29;20213;0
2024/01/11 06:59:58;;;;;;;11.97;8.50;;;16.90;40.40;;;;;;4890018;29;20224;0
2024/01/11 07:02:24;;;;;;;12.33;8.47;;;17.00;40.40;;;;;;4935831;23;20242;-3
2024/01/11 07:04:50;;;;;;;13.70;9.37;;;16.90;40.40;;;;;;4908951;29;20366;-1
2024/01/11 07:07:15;;;;;;;12.97;8.83;;;17.00;40.30;;;;;;4912117;29;20369;-1
2024/01/11 07:09:41;;;;;;;12.97;9.03;;;17.00;40.20;;;;;;4912006;29;20178;-1
2024/01/11 07:12:07;;;;;;;16.90;9.53;;;17.20;40.10;;;;;;4901573;29;20376;-1
2024/01/11 07:14:33;;;;;;;12.80;9.00;;;17.20;40.00;;;;;;4892205;29;20183;-1
2024/01/11 07:16:58;;;;;;;16.37;9.77;;;17.40;39.90;;;;;;4891141;29;20237;-1
2024/01/11 07:19:24;;;;;;;14.23;9.80;;;17.30;39.80;;;;;;4893155;29;20188;-1
2024/01/11 07:21:50;;;;;;;15.83;9.77;;;17.40;39.80;;;;;;4892181;29;20177;-1
2024/01/11 07:24:18;;;;;;;14.67;10.07;;;17.40;39.70;;;;;;4891823;29;20228;-1
2024/01/11 07:26:44;;;;;;;16.27;10.13;;;17.40;39.70;;;;;;4893602;29;20246;-1
2024/01/11 07:29:10;;;;;;;14.97;9.73;;;17.40;39.70;;;;;;4891350;29;20186;-1
2024/01/11 07:31:35;;;;;;;13.10;9.90;;;17.20;39.80;;;;;;4895303;29;20190;-2
2024/01/11 07:34:01;;;;;;;12.87;9.30;;;16.90;40.00;;;;;;4900928;29;20181;-1
2024/01/11 07:36:27;;;;;;;15.23;9.83;;;16.80;40.20;;;;;;4902027;29;20434;-1
2024/01/11 07:38:56;;;;;;;15.87;9.73;;;17.40;39.90;;;;;;4899406;29;20186;-2
2024/01/11 07:41:22;;;;;;;12.63;10.03;;;17.80;39.40;;;;;;4915232;29;20212;-2
2024/01/11 07:43:48;;;;;;;12.73;9.07;;;17.90;39.10;;;;;;4920106;29;20175;-1
2024/01/11 07:46:13;;;;;;;16.20;10.00;;;18.00;39.40;;;;;;4921048;29;20186;-1
2024/01/11 07:48:40;;;;;;;15.20;9.70;;;18.00;39.00;;;;;;4920706;29;20175;-1
2024/01/11 07:51:06;;;;;;;13.83;10.00;;;17.90;39.00;;;;;;4919842;29;20222;-1
2024/01/11 07:53:32;;;;;;;12.73;9.40;;;17.80;39.00;;;;;;4921174;29;20212;-1
2024/01/11 07:55:58;;;;;;;13.97;9.83;;;17.70;39.10;;;;;;4920839;29;20311;-1
2024/01/11 07:58:24;;;;;;;11.67;9.60;;;17.70;39.20;;;;;;4920239;29;20177;-1
2024/01/11 08:00:49;;;;;;;14.53;10.20;;;17.70;39.20;;;;;;4921319;29;20252;-1
2024/01/11 08:03:15;;;;;;;13.07;8.93;;;17.70;39.20;;;;;;4920708;29;20191;-1
2024/01/11 08:05:43;;;;;;;12.73;9.30;;;17.60;39.30;;;;;;4921629;29;20235;-1
2024/01/11 08:08:15;;;;;;;13.17;9.03;;;17.50;39.30;;;;;;4920516;29;20583;-1
2024/01/11 08:10:41;;;;;;;13.47;9.60;;;17.40;39.40;;;;;;4920530;29;20186;-1
2024/01/11 08:13:06;;;;;;;13.23;9.53;;;17.30;39.50;;;;;;4920166;29;20491;-1
2024/01/11 08:15:32;;;;;;;12.77;9.57;;;17.20;39.60;;;;;;4920871;29;20208;-1
2024/01/11 08:18:00;;;;;;;12.10;9.33;;;17.10;39.70;;;;;;4920248;29;20175;-1
2024/01/11 08:20:26;;;;;;;13.53;9.73;;;17.00;39.80;;;;;;4920795;29;20260;-1
2024/01/11 08:22:52;;;;;;;11.57;8.43;;;16.90;39.90;;;;;;4920500;29;20266;-1
2024/01/11 08:25:17;;;;;;;13.03;9.17;;;16.70;40.10;;;;;;4920101;29;20168;-1
2024/01/11 08:27:50;;;;;;;12.40;9.00;;;16.50;40.30;;;;;;4919399;29;20179;-1
2024/01/11 08:30:16;;;;;;;12.03;9.13;;;16.40;40.40;;;;;;4919002;29;20531;-1
2024/01/11 08:32:42;;;;;;;11.93;8.57;;;16.40;40.50;;;;;;4919377;29;20192;-2
2024/01/11 08:35:11;;;;;;;11.37;9.07;;;16.40;40.50;;;;;;4919933;29;20296;-1
2024/01/11 08:37:38;;;;;;;11.37;8.63;;;16.50;40.40;;;;;;4920425;29;20265;-1
2024/01/11 08:40:04;;;;;;;11.00;8.70;;;16.60;40.30;;;;;;4919692;29;20206;-1
2024/01/11 08:42:31;;;;;;;12.20;8.93;;;16.80;40.00;;;;;;4920598;29;20860;-1
2024/01/11 08:47:35;;;;;;;10.40;8.33;;;17.20;39.60;;;;;;4940599;23;20245;0
2024/01/11 08:50:05;;;;;;;11.07;8.83;;;17.50;39.40;;;;;;4928609;29;20191;0
2024/01/11 08:52:32;;;;;;;12.70;8.47;;;17.70;39.20;;;;;;4931918;29;20187;-1
2024/01/11 08:54:58;;;;;;;10.03;8.27;;;17.80;39.00;;;;;;4927893;29;20209;-1
2024/01/11 08:57:23;;;;;;;11.67;8.60;;;17.80;39.00;;;;;;4931564;29;20182;-1
2024/01/11 08:59:49;;;;;;;10.83;8.37;;;17.80;39.00;;;;;;4924434;29;20175;0
2024/01/11 09:02:15;;;;;;;11.17;8.40;;;18.00;38.90;;;;;;4936466;29;20164;0
2024/01/11 09:04:41;;;;;;;11.83;8.80;;;18.40;38.70;;;;;;4929464;29;20187;0
2024/01/11 09:07:07;;;;;;;10.67;8.40;;;18.70;38.40;;;;;;4926942;29;20321;0
2024/01/11 09:09:32;;;;;;;10.13;8.53;;;18.90;38.10;;;;;;4926466;29;20180;0
2024/01/11 09:11:58;;;;;;;10.57;8.60;;;19.00;38.00;;;;;;4926015;29;20184;-2
2024/01/11 09:14:24;;;;;;;9.97;8.50;;;19.10;37.80;;;;;;4926268;29;20176;-2
2024/01/11 09:16:50;;;;;;;12.43;8.83;;;19.20;37.70;;;;;;4926104;29;20216;-2
2024/01/11 09:19:16;;;;;;;9.80;8.37;;;19.30;37.60;;;;;;4925704;29;20211;-2
2024/01/11 09:21:42;;;;;;;10.20;8.73;;;19.30;37.60;;;;;;4925588;29;20187;-2
2024/01/11 09:24:08;;;;;;;10.47;8.27;;;19.30;37.50;;;;;;4926993;29;20321;-2
2024/01/11 09:26:36;;;;;;;10.40;8.53;;;19.30;37.40;;;;;;4940473;29;20260;-3
2024/01/11 09:29:02;;;;;;;9.90;8.40;;;19.20;37.50;;;;;;4926433;29;20545;-2
2024/01/11 09:31:28;;;;;;;10.00;8.47;;;18.90;37.50;;;;;;4924127;29;20239;-3
2024/01/11 09:33:53;;;;;;;10.23;8.20;;;18.80;37.60;;;;;;4925313;29;20444;-2
2024/01/11 09:36:19;;;;;;;10.10;9.00;;;18.70;37.70;;;;;;4927022;29;20211;-2
2024/01/11 09:38:45;;;;;;;11.50;9.10;;;18.60;37.90;;;;;;4936127;29;20775;-3
2024/01/11 09:41:13;;;;;;;11.47;8.53;;;18.50;38.00;;;;;;4937492;29;20177;-2
2024/01/11 09:43:41;;;;;;;10.80;8.77;;;18.40;38.10;;;;;;4937278;29;20176;-3
2024/01/11 09:46:07;;;;;;;10.17;8.70;;;18.30;38.20;;;;;;4936411;29;20200;-2
2024/01/11 09:48:37;;;;;;;10.70;8.47;;;18.20;38.20;;;;;;4936969;29;20239;-2
2024/01/11 09:51:09;;;;;;;10.77;8.73;;;18.20;38.20;;;;;;4937566;29;20180;-2
2024/01/11 09:53:38;;;;;;;10.57;8.67;;;18.30;38.20;;;;;;4937358;29;20193;-2
2024/01/11 09:56:09;;;;;;;11.03;8.87;;;18.20;38.20;;;;;;4937042;29;20223;-2
2024/01/11 09:58:39;;;;;;;10.43;8.60;;;18.30;38.20;;;;;;4937512;29;20208;-2
2024/01/11 10:01:09;;;;;;;10.47;8.70;;;18.40;38.20;;;;;;4936968;29;20186;-2
2024/01/11 10:03:35;;;;;;;9.27;8.33;;;18.30;38.20;;;;;;4937845;29;20180;-3
2024/01/11 10:06:04;;;;;;;10.93;8.70;;;18.30;38.10;;;;;;4938080;29;20576;-3
2024/01/11 10:08:31;;;;;;;12.13;8.60;;;18.40;38.10;;;;;;4939010;29;20255;-2
2024/01/11 10:10:57;;;;;;;13.53;9.37;;;18.40;38.00;;;;;;4938557;29;20180;-2
2024/01/11 10:13:28;;;;;;;9.73;8.27;;;18.60;37.90;;;;;;4938360;29;20227;-2
2024/01/11 10:16:09;;;;;;;9.97;8.57;;;18.70;37.70;;;;;;4937916;29;20216;-3
2024/01/11 10:18:35;;;;;;;9.67;8.60;;;18.80;37.70;;;;;;4937514;29;20180;-2
2024/01/11 10:21:02;;;;;;;9.77;8.53;;;19.00;37.50;;;;;;4938665;29;20243;-2
2024/01/11 10:23:31;;;;;;;10.20;8.57;;;19.10;37.30;;;;;;4937111;29;20180;-2
2024/01/11 10:25:57;;;;;;;10.10;8.83;;;19.10;37.40;;;;;;4937645;29;20718;-3
2024/01/11 10:28:26;;;;;;;10.20;8.50;;;19.10;37.40;;;;;;4937630;29;20746;-2
2024/01/11 10:30:55;;;;;;;10.30;8.83;;;19.10;37.30;;;;;;4939031;23;20703;-76
2024/01/11 10:33:22;;;;;;;9.03;8.13;;;19.10;37.30;;;;;;4914587;29;20189;-73
2024/01/11 10:35:51;;;;;;;10.00;8.30;;;19.20;37.40;;;;;;4915486;29;20222;-73
2024/01/11 10:38:18;;;;;;;9.47;8.07;;;19.10;37.40;;;;;;4913884;29;20292;-74
2024/01/11 10:40:45;;;;;;;9.73;8.50;;;19.00;37.50;;;;;;4913150;29;20467;-74
2024/01/11 10:43:12;;;;;;;9.70;8.70;;;18.90;37.50;;;;;;4913053;29;20196;-74
2024/01/11 10:45:41;;;;;;;10.13;8.53;;;18.80;37.70;;;;;;4914267;29;20195;-74
2024/01/11 10:48:14;;;;;;;10.67;8.40;;;18.60;37.80;;;;;;4914557;29;20223;-74
2024/01/11 10:50:45;;;;;;;9.87;8.03;;;18.60;37.90;;;;;;4913450;29;20188;-74
2024/01/11 10:53:32;;;;;;;9.37;8.27;;;18.60;38.00;;;;;;4917161;29;20181;-74
2024/01/11 10:56:00;;;;;;;9.47;7.87;;;18.50;38.00;;;;;;4917045;29;20534;-74
2024/01/11 10:58:27;;;;;;;9.30;8.30;;;18.50;38.10;;;;;;4917746;29;20179;-74
2024/01/11 11:00:55;;;;;;;11.57;8.57;;;18.40;38.20;;;;;;4917087;29;20182;-74
2024/01/11 11:03:24;;;;;;;10.27;7.93;;;18.30;38.20;;;;;;4916815;29;20176;-74
2024/01/11 11:05:57;;;;;;;9.27;8.00;;;18.30;38.40;;;;;;4916896;29;20330;-74
2024/01/11 11:08:25;;;;;;;9.10;7.70;;;18.30;38.40;;;;;;4917573;29;20254;-74
2024/01/11 11:10:57;;;;;;;9.77;8.10;;;18.20;38.40;;;;;;4917352;29;20272;-74
2024/01/11 11:13:23;;;;;;;9.90;7.97;;;18.20;38.60;;;;;;4918530;29;20185;-73
2024/01/11 11:15:53;;;;;;;10.60;8.00;;;18.20;38.70;;;;;;4918387;29;20244;-73
2024/01/11 11:18:27;;;;;;;10.10;8.10;;;18.20;38.70;;;;;;4918723;29;20180;-73
2024/01/11 11:20:54;;;;;;;10.87;8.53;;;18.30;38.60;;;;;;4918643;29;20200;-74
2024/01/11 11:23:23;;;;;;;9.10;8.00;;;18.30;38.60;;;;;;4917690;29;20243;-73
2024/01/11 11:25:49;;;;;;;11.47;8.43;;;18.30;38.60;;;;;;4919134;29;20470;-73
2024/01/11 11:28:17;;;;;;;10.13;7.87;;;18.40;38.50;;;;;;4916628;29;20263;-73
2024/01/11 11:30:45;;;;;;;10.23;8.07;;;18.60;38.30;;;;;;4915909;29;20197;-72
2024/01/11 11:33:18;;;;;;;10.57;8.10;;;18.70;38.20;;;;;;4917597;29;20309;-73
2024/01/11 11:35:46;;;;;;;9.83;8.20;;;18.80;38.10;;;;;;4917373;29;20211;-73
2024/01/11 11:38:23;;;;;;;10.03;8.27;;;19.00;37.90;;;;;;4916643;29;20174;-72
2024/01/11 11:40:51;;;;;;;10.33;7.90;;;19.10;37.80;;;;;;4916734;29;20465;-73
2024/01/11 11:43:17;;;;;;;10.60;8.13;;;19.00;37.80;;;;;;4916904;29;20252;-72
2024/01/11 11:45:45;;;;;;;10.20;8.07;;;19.00;37.90;;;;;;4915804;29;20204;-74
2024/01/11 11:48:32;;;;;;;11.83;9.10;;;18.90;37.80;;;;;;4914980;29;20226;-75
2024/01/11 11:51:16;;;;;;;10.20;8.67;;;18.90;37.90;;;;;;4916680;29;20185;-77
2024/01/11 11:53:42;;;;;;;9.40;7.93;;;18.80;38.00;;;;;;4929795;29;20204;-75
2024/01/11 11:56:12;;;;;;;11.90;7.90;;;18.80;38.10;;;;;;4914414;29;20208;-73
2024/01/11 11:58:41;;;;;;;10.13;8.17;;;18.70;38.20;;;;;;4916178;29;20173;-73
2024/01/11 12:01:07;;;;;;;9.20;8.17;;;18.60;38.30;;;;;;4916989;29;20844;-72
2024/01/11 12:03:38;;;;;;;9.73;7.87;;;18.50;38.40;;;;;;4915068;29;20177;-73
2024/01/11 12:06:05;;;;;;;9.63;7.70;;;18.40;38.30;;;;;;4915116;29;20233;-73
2024/01/11 12:08:32;;;;;;;10.70;8.17;;;18.40;38.40;;;;;;4916559;29;20181;-73
2024/01/11 12:10:58;;;;;;;9.93;8.07;;;18.20;38.60;;;;;;4916655;29;20184;-73
2024/01/11 12:13:25;;;;;;;11.03;8.83;;;18.10;38.60;;;;;;4916547;29;20208;-73
2024/01/11 12:15:50;;;;;;;8.17;7.03;;;18.10;38.80;;;;;;4914756;29;20216;-73
2024/01/11 12:18:17;;;;;;;9.40;7.70;;;18.00;38.90;;;;;;4916125;29;20330;-73
2024/01/11 12:20:42;;;;;;;10.57;8.40;;;17.80;38.90;;;;;;4914574;29;20454;-73
2024/01/11 12:23:08;;;;;;;12.23;8.20;;;17.70;39.00;;;;;;4915382;29;20187;-73
2024/01/11 12:25:36;;;;;;;10.90;8.20;;;17.70;39.20;;;;;;4915159;29;20204;-73
2024/01/11 12:28:02;;;;;;;9.77;8.20;;;17.60;39.20;;;;;;4914826;29;20328;-73
2024/01/11 12:30:29;;;;;;;13.47;8.97;;;17.50;39.30;;;;;;4915120;29;20230;-73
2024/01/11 12:32:56;;;;;;;9.83;8.27;;;17.50;39.20;;;;;;4912889;29;20184;-73
2024/01/11 12:35:23;;;;;;;10.63;8.53;;;17.60;39.20;;;;;;4913077;29;20616;-74
2024/01/11 12:37:59;;;;;;;9.33;8.10;;;17.60;39.20;;;;;;4915790;29;20176;-74
2024/01/11 12:40:30;;;;;;;11.60;8.87;;;17.70;39.10;;;;;;4914630;29;20206;-74
2024/01/11 12:42:58;;;;;;;11.33;8.87;;;17.70;39.00;;;;;;4914817;29;20738;-74
2024/01/11 12:45:28;;;;;;;12.30;8.60;;;17.90;38.90;;;;;;4914403;29;20775;-74
2024/01/11 12:47:56;;;;;;;10.20;8.27;;;17.90;38.80;;;;;;4915342;29;20190;-74
2024/01/11 12:50:23;;;;;;;9.50;8.30;;;18.00;38.80;;;;;;4915106;29;20782;-74
2024/01/11 12:53:22;;;;;;;11.10;8.87;;;18.00;38.70;;;;;;4914948;29;20471;-73
2024/01/11 12:56:01;;;;;;;10.20;8.57;;;18.10;38.70;;;;;;4913923;29;20274;-74
2024/01/11 12:58:27;;;;;;;11.50;8.60;;;18.20;38.60;;;;;;4915041;29;20768;-74
2024/01/11 13:00:53;;;;;;;11.50;9.03;;;18.00;38.50;;;;;;4914236;29;20183;-74
2024/01/11 13:03:23;;;;;;;11.50;8.80;;;18.00;38.60;;;;;;4916191;29;20182;-74
2024/01/11 13:05:50;;;;;;;12.73;8.60;;;17.90;38.60;;;;;;4913145;29;20274;-74
2024/01/11 13:08:16;;;;;;;9.67;8.67;;;17.90;38.60;;;;;;4914284;29;20231;-74
2024/01/11 13:10:42;;;;;;;11.30;8.43;;;18.00;38.60;;;;;;4914887;29;20468;-74
2024/01/11 13:13:08;;;;;;;10.77;8.37;;;18.00;38.60;;;;;;4914194;29;20195;-74
2024/01/11 13:15:34;;;;;;;11.27;8.90;;;18.00;38.70;;;;;;4914352;29;20206;-74
2024/01/11 13:18:02;;;;;;;11.97;9.13;;;17.90;38.70;;;;;;4914119;29;20317;-74
2024/01/11 13:20:28;;;;;;;11.33;8.73;;;17.80;38.80;;;;;;4915501;29;20573;-76
2024/01/11 13:23:17;;;;;;;10.87;8.63;;;17.70;38.80;;;;;;4914117;29;20196;-76
2024/01/11 13:25:45;;;;;;;11.77;8.60;;;17.60;39.00;;;;;;4913171;29;20180;-76
2024/01/11 13:28:12;;;;;;;9.73;8.07;;;17.50;39.10;;;;;;4915378;29;20200;-76
2024/01/11 13:30:39;;;;;;;10.40;8.60;;;17.50;39.20;;;;;;4914571;29;20206;-78
2024/01/11 13:33:05;;;;;;;13.47;8.23;;;17.40;39.20;;;;;;4914831;29;20184;-76
2024/01/11 13:35:31;;;;;;;11.37;8.97;;;17.30;39.40;;;;;;4913740;29;20207;-78
2024/01/11 13:37:57;;;;;;;11.03;8.10;;;17.20;39.40;;;;;;4912901;29;20176;-78
2024/01/11 13:40:23;;;;;;;10.23;8.23;;;17.10;39.50;;;;;;4913330;29;20275;-76
2024/01/11 13:42:50;;;;;;;11.27;9.10;;;17.00;39.60;;;;;;4914668;29;20256;-76
2024/01/11 13:45:16;;;;;;;10.53;8.50;;;17.00;39.70;;;;;;4915665;29;20923;-77
2024/01/11 13:47:42;;;;;;;9.90;7.80;;;17.00;39.70;;;;;;4913505;29;20238;-75
2024/01/11 13:50:08;;;;;;;10.83;8.27;;;17.00;39.70;;;;;;4913289;29;20765;-76
2024/01/11 13:52:34;;;;;;;11.63;8.37;;;16.90;39.70;;;;;;4916094;29;20179;-75
2024/01/11 13:55:03;;;;;;;10.70;8.30;;;17.00;39.80;;;;;;4916266;29;20381;-75
2024/01/11 13:57:28;;;;;;;10.97;8.50;;;17.10;39.70;;;;;;4914674;29;20188;-75
2024/01/11 13:59:54;;;;;;;10.40;8.03;;;17.10;39.60;;;;;;4915296;29;20176;-76
2024/01/11 14:02:21;;;;;;;11.00;8.60;;;17.20;39.60;;;;;;4915129;29;20176;-77
2024/01/11 14:04:47;;;;;;;10.13;8.07;;;17.20;39.60;;;;;;4913959;29;20248;-77
2024/01/11 14:07:12;;;;;;;9.53;8.00;;;17.40;39.40;;;;;;4913904;29;20179;-77
2024/01/11 14:09:38;;;;;;;10.80;8.17;;;17.10;39.50;;;;;;4914301;29;20199;-79
2024/01/11 14:12:04;;;;;;;11.20;8.23;;;16.90;39.70;;;;;;4914898;29;20178;-79
2024/01/11 14:14:30;;;;;;;10.50;7.90;;;16.70;39.90;;;;;;4913754;29;20173;-74
2024/01/11 14:16:56;;;;;;;12.00;8.23;;;16.50;40.10;;;;;;4913169;29;20216;-74
2024/01/11 14:19:22;;;;;;;9.83;7.83;;;16.20;40.40;;;;;;4914081;29;20183;-77
2024/01/11 14:21:48;;;;;;;9.73;8.03;;;16.10;40.80;;;;;;4914947;29;20227;-77
2024/01/11 14:24:14;;;;;;;11.17;8.13;;;15.90;41.10;;;;;;4914714;29;20184;-77
2024/01/11 14:26:40;;;;;;;9.70;7.70;;;15.90;41.30;;;;;;4913711;29;20186;-77
2024/01/11 14:29:08;;;;;;;10.87;7.70;;;16.20;41.20;;;;;;4910285;29;20182;-77
2024/01/11 14:31:34;;;;;;;9.50;7.77;;;16.60;40.80;;;;;;4914057;29;20197;-77
2024/01/11 14:34:00;;;;;;;10.20;8.37;;;17.10;40.40;;;;;;4916426;29;20173;-77
2024/01/11 14:36:26;;;;;;;10.77;8.13;;;17.40;39.80;;;;;;4905016;29;20213;-77
2024/01/11 14:38:52;;;;;;;10.27;8.27;;;17.50;39.50;;;;;;4899217;29;20518;-77
2024/01/11 14:41:18;;;;;;;9.27;7.50;;;17.20;39.60;;;;;;4899588;29;20249;-77
2024/01/11 14:43:44;;;;;;;11.50;8.13;;;17.00;39.70;;;;;;4899177;29;20179;-77
2024/01/11 14:46:10;;;;;;;11.67;8.17;;;17.00;39.90;;;;;;4900726;29;20244;-77
2024/01/11 14:48:38;;;;;;;9.57;7.50;;;17.00;39.90;;;;;;4901165;29;20188;-77
2024/01/11 14:51:05;;;;;;;9.83;7.63;;;17.00;40.00;;;;;;4900948;29;20451;-77
2024/01/11 14:53:31;;;;;;;9.70;7.57;;;17.10;40.00;;;;;;4898580;29;20179;-77
2024/01/11 14:55:56;;;;;;;10.53;7.80;;;17.10;39.90;;;;;;4899700;29;20219;-77
2024/01/11 14:58:23;;;;;;;9.03;7.43;;;17.10;39.90;;;;;;4907534;29;20569;-77
2024/01/11 15:00:50;;;;;;;9.47;7.57;;;17.10;39.80;;;;;;4918812;29;20180;-77
2024/01/11 15:03:18;;;;;;;8.43;7.50;;;17.00;39.80;;;;;;4918635;29;20175;-77
2024/01/11 15:05:44;;;;;;;10.20;7.43;;;17.00;39.90;;;;;;4918196;29;20180;-77
2024/01/11 15:08:10;;;;;;;11.00;8.07;;;16.90;40.00;;;;;;4918150;29;20234;-77
2024/01/11 15:10:38;;;;;;;9.30;7.80;;;16.80;40.00;;;;;;4918506;29;20184;-77
2024/01/11 15:13:04;;;;;;;7.90;7.03;;;16.80;40.20;;;;;;4918729;29;20501;-77
2024/01/11 15:15:30;;;;;;;9.30;7.00;;;16.60;40.20;;;;;;4917613;29;20208;-77
2024/01/11 15:17:56;;;;;;;9.20;7.23;;;16.50;40.40;;;;;;4916563;29;20184;-77
2024/01/11 15:20:22;;;;;;;9.67;7.63;;;16.50;40.50;;;;;;4916141;29;20283;-77
2024/01/11 15:22:49;;;;;;;9.73;7.47;;;16.30;40.60;;;;;;4916896;29;20176;-78
2024/01/11 15:25:15;;;;;;;9.53;7.63;;;16.20;40.70;;;;;;4916144;29;20176;-77
2024/01/11 15:27:44;;;;;;;9.17;7.30;;;16.20;40.70;;;;;;4917495;29;20180;-77
2024/01/11 15:30:11;;;;;;;9.57;7.37;;;16.10;40.90;;;;;;4917058;29;20183;-77
2024/01/11 15:32:37;;;;;;;9.40;7.80;;;16.10;40.90;;;;;;4918363;29;20221;-77
2024/01/11 15:35:07;;;;;;;10.83;7.90;;;16.00;40.90;;;;;;4917532;29;20178;-77
2024/01/11 15:37:34;;;;;;;10.17;8.13;;;16.00;40.90;;;;;;4918092;29;20270;-77
2024/01/11 15:40:02;;;;;;;9.47;7.53;;;16.00;40.80;;;;;;4916931;29;20187;-77
2024/01/11 15:42:27;;;;;;;10.73;8.20;;;16.10;40.70;;;;;;4917710;29;20219;-77
2024/01/11 15:44:53;;;;;;;9.27;7.33;;;16.10;40.60;;;;;;4917469;29;20209;-77
2024/01/11 15:47:19;;;;;;;10.00;7.40;;;16.20;40.60;;;;;;4914595;29;20182;-77